Crown Princess — ZCDM6 — position and weather

sailwx.info

Track history (hours):
 
Tides and Currents Weather Stations Pressure Air Temp Water Temp Dewpoint Dewpoint Depression Visibility Wind Speed Wind Dir Waves Ship Positions

Crown Princess

Last reported at 2017-May-27 01:50 UTC. Time now 2017-May-27 02:17 UTC.
Position N 50°13' W 001°05'.

Type: Ship. MMSI: 310500000.

Date/timePositionNaut miles runAvg speedWind from/ knotsBaromVisibWave heightAir tempDewpointWater temp
2017-May-27 01:50N 50°13' W 001°05'515.8
2017-May-27 01:29N 50°11' W 001°13'713.8
2017-May-27 00:59N 50°09' W 001°23'4115.2
2017-May-26 22:19N 49°57' W 002°23'516.2
2017-May-26 22:00N 49°55' W 002°31'816.1
2017-May-26 21:30N 49°53' W 002°43'816.2
2017-May-26 21:01N 49°51' W 002°55'816.4
2017-May-26 20:30N 49°46' W 003°06'917.9
2017-May-26 20:00N 49°42' W 003°17'1020.3
2017-May-26 19:30N 49°37' W 003°31'1020.6
2017-May-26 19:00N 49°32' W 003°45'1120.9
2017-May-26 18:30N 49°27' W 003°59'1121.1
2017-May-26 18:00N 49°21' W 004°12'3321.5
2017-May-26 16:28N 49°02' W 004°54'1021.8
2017-May-26 16:00N 48°57' W 005°08'1121.0
2017-May-26 15:30N 48°53' W 005°22'1221.6
2017-May-26 14:58N 48°47' W 005°37'2020.2
2017-May-26 13:59N 48°29' W 005°50'21919.9
2017-May-26 03:00N 45°12' W 008°12'11623.3 310 / 51011.4 5.4 14.513.618.0
2017-May-25 22:00N 43°30' W 009°30'9018.1 310 / 161013.9 5.4 15.514.318.0
2017-May-25 17:00N 42°00' W 009°42'2424.0 290 / 141011.9 5.4 17.016.318.0
2017-May-25 16:00N 41°36' W 009°42'1818.0 340 / 101012.0 5.4 17.016.318.0
2017-May-25 15:00N 41°18' W 009°42'824.2 330 / 121013.0 5.4 17.016.318.0
2017-May-25 14:41N 41°12' W 009°48'6319.6
2017-May-25 11:28N 40°09' W 009°48'919.8
2017-May-25 11:00N 40°00' W 009°49'12900.6
2017-May-25 11:00N 40°12' W 009°48'2244.8 310 / 111014.4 2.2 17.013.518.0
2017-May-25 10:30N 39°50' W 009°50'1019.5
2017-May-25 10:01N 39°41' W 009°50'1019.7
2017-May-25 09:29N 39°30' W 009°50'919.3
2017-May-25 09:01N 39°21' W 009°49'1019.1
2017-May-25 08:30N 39°11' W 009°49'1019.6
2017-May-25 08:00N 39°02' W 009°50'1019.5
2017-May-25 07:30N 38°52' W 009°50'1019.5
2017-May-25 07:01N 38°42' W 009°50'1019.6
2017-May-25 06:31N 38°33' W 009°47'1019.8
2017-May-25 06:00N 38°23' W 009°44'1020.0
2017-May-25 05:31N 38°13' W 009°41'1020.1
2017-May-25 05:00N 38°03' W 009°39'4262.7
2017-May-25 05:00N 38°00' W 009°36'613.0 310 / 41013.8 5.4 20.514.618.0
2017-May-25 04:31N 37°54' W 009°36'1020.0
2017-May-25 04:01N 37°44' W 009°33'3182.0
2017-May-25 04:00N 37°42' W 009°30'816.2 010 / 41013.9 5.4 20.514.618.0
2017-May-25 03:31N 37°34' W 009°31'1020.0
2017-May-25 03:01N 37°24' W 009°29'4215.7
2017-May-25 03:00N 37°24' W 009°24'1020.0 360 / 41014.0 5.4 20.514.618.0
2017-May-25 02:30N 37°14' W 009°26'1019.7
2017-May-25 01:59N 37°05' W 009°22'919.6
2017-May-25 01:31N 36°56' W 009°19'1019.8
2017-May-25 01:01N 36°48' W 009°12'1019.4
2017-May-25 00:30N 36°43' W 009°01'1020.1
2017-May-25 00:00N 36°40' W 008°49'1119.9
2017-May-24 23:26N 36°36' W 008°36'920.1
2017-May-24 23:00N 36°34' W 008°26'1219.7
2017-May-24 22:24N 36°30' W 008°12'819.4
2017-May-24 22:00N 36°28' W 008°02'81139.1
2017-May-24 22:00N 36°24' W 007°54'11317.8 360 / 151013.8 5.4 19.716.920.0
2017-May-24 15:40N 35°58' W 005°38'315.8
2017-May-24 15:30N 35°59' W 005°35'816.8
2017-May-24 15:01N 36°01' W 005°25'815.2
2017-May-24 14:30N 36°09' W 005°22'0 0.0
2017-May-24 06:05N 36°09' W 005°22'1 7.0
2017-May-24 05:52N 36°07' W 005°23'3 9.1
2017-May-24 05:31N 36°06' W 005°19'1019.4
2017-May-24 05:00N 36°06' W 005°07'1019.2
2017-May-24 04:30N 36°08' W 004°55'20617.0
2017-May-23 16:21N 37°20' W 000°54'617.1
2017-May-23 16:00N 37°24' W 000°49'917.6
2017-May-23 15:30N 37°30' W 000°40'917.7
2017-May-23 14:59N 37°36' W 000°32'1717.2
2017-May-23 14:00N 37°50' W 000°19'1017.0
2017-May-23 13:23N 37°59' W 000°13'717.6
2017-May-23 12:59N 38°05' W 000°07'1117.5
2017-May-23 12:23N 38°14' W 000°01'717.8
2017-May-23 12:00N 38°20' E 000°03'4818.1
2017-May-23 09:19N 38°60' E 000°38'618.4
2017-May-23 08:59N 39°05' E 000°43'918.3
2017-May-23 08:29N 39°12' E 000°51'1018.4
2017-May-23 07:59N 39°19' E 000°58'918.4
2017-May-23 07:30N 39°26' E 001°06'916.8
2017-May-23 06:57N 39°33' E 001°13'918.3
2017-May-23 06:26N 39°40' E 001°21'818.7
2017-May-23 06:00N 39°47' E 001°27'918.8
2017-May-23 05:30N 39°54' E 001°35'918.8
2017-May-23 05:00N 40°01' E 001°43'1152.3
2017-May-23 05:00N 40°00' E 001°42'1122.3 050 / 151018.410.8 18.515.119.0
2017-May-23 04:30N 40°09' E 001°51'919.0
2017-May-23 04:00N 40°16' E 001°58'5316.6
2017-May-23 04:00N 40°12' E 001°54'1530.2 050 / 111018.010.8 18.515.119.0
2017-May-23 03:31N 40°23' E 002°06'918.7
2017-May-23 03:00N 40°31' E 002°14'7506.2
2017-May-23 03:00N 40°24' E 002°12'1632.4 040 / 101018.110.8 18.515.119.0
2017-May-23 02:31N 40°38' E 002°22'918.8
2017-May-23 02:00N 40°45' E 002°29'918.6
2017-May-23 01:30N 40°53' E 002°37'918.6
2017-May-23 01:01N 40°60' E 002°45'918.4
2017-May-23 00:30N 41°07' E 002°52'918.5
2017-May-23 00:00N 41°14' E 003°00'918.4
2017-May-22 23:31N 41°21' E 003°08'918.7
2017-May-22 23:01N 41°28' E 003°16'918.9
2017-May-22 22:30N 41°36' E 003°24'918.6
2017-May-22 22:01N 41°43' E 003°31'1018.9
2017-May-22 21:30N 41°50' E 003°39'1020.0
2017-May-22 21:01N 41°58' E 003°48'1019.9
2017-May-22 20:30N 42°06' E 003°56'1020.0
2017-May-22 20:01N 42°14' E 004°05'1020.0
2017-May-22 19:30N 42°21' E 004°13'1020.1
2017-May-22 19:00N 42°29' E 004°22'1020.2
2017-May-22 18:30N 42°37' E 004°30'1020.2
2017-May-22 18:01N 42°45' E 004°39'1020.0
2017-May-22 17:30N 42°53' E 004°48'1019.4
2017-May-22 17:00N 43°00' E 004°56'917.7
2017-May-22 16:30N 43°07' E 005°04'816.4
2017-May-22 16:00N 43°15' E 005°08'816.1
2017-May-22 15:30N 43°20' E 005°17'3 4.2
2017-May-22 14:52N 43°21' E 005°20'0 0.0
2017-May-22 13:57N 43°21' E 005°20'0 0.0
2017-May-22 13:24N 43°21' E 005°20'0 0.0
2017-May-22 13:00N 43°21' E 005°20'0 0.0
2017-May-22 12:30N 43°21' E 005°20'0 0.0
2017-May-22 11:56N 43°21' E 005°20'0 0.0
2017-May-22 11:23N 43°21' E 005°20'0 0.0
2017-May-22 10:50N 43°21' E 005°20'0 0.0
2017-May-22 10:29N 43°21' E 005°20'0 0.0
2017-May-22 09:58N 43°21' E 005°20'0 0.0
2017-May-22 09:25N 43°21' E 005°20'0 0.0
2017-May-22 08:55N 43°21' E 005°20'0 0.0
2017-May-22 08:19N 43°21' E 005°20'0 0.0
2017-May-22 07:58N 43°21' E 005°20'0 0.0
2017-May-22 07:30N 43°21' E 005°20'0 0.0
2017-May-22 06:54N 43°21' E 005°20'0 0.0
2017-May-22 06:21N 43°21' E 005°20'0 0.0
2017-May-22 06:00N 43°21' E 005°20'0 0.0
2017-May-22 05:30N 43°21' E 005°20'1 2.5
2017-May-22 05:00N 43°21' E 005°19'611.0
2017-May-22 04:30N 43°17' E 005°13'714.1
2017-May-22 04:00N 43°10' E 005°11'815.3
2017-May-22 03:30N 43°05' E 005°18'916.3
2017-May-22 02:57N 43°02' E 005°30'716.5
2017-May-22 02:30N 42°59' E 005°39'816.8
2017-May-22 02:00N 42°57' E 005°50'816.8
2017-May-22 01:31N 42°54' E 006°01'816.8
2017-May-22 01:01N 42°51' E 006°11'815.5
2017-May-22 00:29N 42°52' E 006°23'816.9
2017-May-22 00:00N 42°56' E 006°32'917.1
2017-May-21 23:29N 43°00' E 006°43'1318.3
2017-May-21 22:47N 43°07' E 006°57'518.3
2017-May-21 22:30N 43°10' E 007°04'917.9
2017-May-21 21:58N 43°15' E 007°15'818.0
2017-May-21 21:31N 43°19' E 007°25'917.7
2017-May-21 21:00N 43°23' E 007°36'917.7
2017-May-21 20:30N 43°27' E 007°46'1019.2
2017-May-21 20:00N 43°32' E 007°57'1019.3
2017-May-21 19:31N 43°37' E 008°09'918.7
2017-May-21 19:01N 43°43' E 008°19'918.6
2017-May-21 18:30N 43°48' E 008°29'917.7
2017-May-21 18:00N 43°54' E 008°39'1019.1
2017-May-21 17:30N 44°00' E 008°49'917.4
2017-May-21 17:01N 44°06' E 008°58'917.3
2017-May-21 16:30N 44°11' E 009°07'917.2
2017-May-21 16:01N 44°17' E 009°17'4 6.4
2017-May-21 15:27N 44°20' E 009°14'0 0.0
2017-May-21 14:59N 44°20' E 009°14'0 0.0
2017-May-21 14:29N 44°20' E 009°14'0 0.0
2017-May-21 13:26N 44°20' E 009°14'0 0.0
2017-May-21 12:55N 44°20' E 009°14'0 0.0
2017-May-21 12:28N 44°20' E 009°14'0 0.0
2017-May-21 10:39N 44°20' E 009°14'0 0.0
2017-May-21 10:30N 44°20' E 009°14'0 0.0
2017-May-21 09:48N 44°20' E 009°14'0 0.0
2017-May-21 09:27N 44°20' E 009°14'0 0.1
2017-May-21 09:00N 44°20' E 009°14'0 0.0
2017-May-21 08:30N 44°20' E 009°14'0 0.0
2017-May-21 06:16N 44°20' E 009°14'0 0.0
2017-May-21 06:00N 44°20' E 009°14'0 0.0
2017-May-21 04:24N 44°20' E 009°14'1 3.1
2017-May-21 04:00N 44°19' E 009°15'612.3
2017-May-21 03:31N 44°13' E 009°18'611.2
2017-May-21 03:00N 44°08' E 009°19'510.1
2017-May-21 02:30N 44°03' E 009°19'510.2
2017-May-21 02:00N 43°57' E 009°19'511.0
2017-May-21 01:30N 43°52' E 009°20'611.0
2017-May-21 01:00N 43°47' E 009°20'5 9.9
2017-May-21 00:30N 43°42' E 009°23'510.7
2017-May-21 00:00N 43°40' E 009°30'510.5
2017-May-20 23:30N 43°38' E 009°36'510.6
2017-May-20 23:00N 43°36' E 009°43'510.7
2017-May-20 22:30N 43°34' E 009°50'510.6
2017-May-20 22:00N 43°32' E 009°57'510.1
2017-May-20 21:30N 43°30' E 010°03'510.3
2017-May-20 21:00N 43°31' E 010°11'5 9.1
2017-May-20 20:30N 43°32' E 010°17'1 2.8
2017-May-20 20:00N 43°33' E 010°18'0 0.0
2017-May-20 19:30N 43°33' E 010°18'0 0.0
2017-May-20 19:00N 43°33' E 010°18'0 0.0
2017-May-20 18:30N 43°33' E 010°18'0 0.0
2017-May-20 17:59N 43°33' E 010°18'0 0.0
2017-May-20 17:26N 43°33' E 010°18'0 0.0
2017-May-20 16:56N 43°33' E 010°18'0 0.0
2017-May-20 16:29N 43°33' E 010°18'0 0.0
2017-May-20 15:59N 43°33' E 010°18'0 0.0
2017-May-20 15:28N 43°33' E 010°18'0 0.0
2017-May-20 14:58N 43°33' E 010°18'0 0.0
2017-May-20 14:28N 43°33' E 010°18'0 0.0
2017-May-20 13:30N 43°33' E 010°18'0 0.0
2017-May-20 13:00N 43°33' E 010°18'0 0.0
2017-May-20 12:30N 43°33' E 010°18'0 0.0
2017-May-20 11:57N 43°33' E 010°18'0 0.0
2017-May-20 11:30N 43°33' E 010°18'0 0.1
2017-May-20 11:00N 43°33' E 010°18'0 0.0
2017-May-20 10:29N 43°33' E 010°18'0 0.0
2017-May-20 09:59N 43°33' E 010°18'0 0.0
2017-May-20 09:30N 43°33' E 010°18'0 0.1
2017-May-20 08:58N 43°33' E 010°18'0 0.0
2017-May-20 08:28N 43°33' E 010°18'0 0.0
2017-May-20 07:58N 43°33' E 010°18'0 0.0
2017-May-20 07:28N 43°33' E 010°18'0 0.0
2017-May-20 06:57N 43°33' E 010°18'0 0.0
2017-May-20 06:30N 43°33' E 010°18'0 0.0
2017-May-20 06:00N 43°33' E 010°18'0 0.0
2017-May-20 05:24N 43°33' E 010°18'0 0.0
2017-May-20 05:00N 43°33' E 010°18'1 2.9
2017-May-20 04:30N 43°32' E 010°16'4 7.4
2017-May-20 04:01N 43°29' E 010°13'611.3
2017-May-20 03:30N 43°24' E 010°11'714.9
2017-May-20 03:00N 43°16' E 010°09'714.5
2017-May-20 02:30N 43°09' E 010°07'714.6
2017-May-20 02:00N 43°02' E 010°06'714.7
2017-May-20 01:30N 42°55' E 010°04'714.8
2017-May-20 01:00N 42°47' E 010°03'713.6
2017-May-20 00:30N 42°41' E 010°06'914.6
2017-May-19 23:53N 42°36' E 010°16'514.7
2017-May-19 23:30N 42°32' E 010°22'815.1
2017-May-19 23:00N 42°27' E 010°30'3115.2
2017-May-19 20:59N 42°08' E 011°03'915.2
2017-May-19 20:23N 42°07' E 011°15'815.3
2017-May-19 19:54N 42°06' E 011°25'615.3
2017-May-19 19:29N 42°05' E 011°33'10 0.9
2017-May-19 08:44N 42°06' E 011°46'23 3.9
2017-May-19 02:55N 41°57' E 011°19'817.2
2017-May-19 02:26N 41°54' E 011°08'716.5
2017-May-19 02:00N 41°51' E 010°60'1117.0
2017-May-19 01:22N 41°47' E 010°46'817.3
2017-May-19 00:54N 41°44' E 010°36'1217.2
2017-May-19 00:11N 41°39' E 010°21'317.2
2017-May-19 00:00N 41°38' E 010°17'917.3
2017-May-18 23:30N 41°35' E 010°07'1817.2
2017-May-18 22:29N 41°28' E 009°45'1217.3
2017-May-18 21:47N 41°24' E 009°30'616.7
2017-May-18 21:28N 41°22' E 009°23'715.7
2017-May-18 21:00N 41°18' E 009°15'612.6
2017-May-18 20:29N 41°17' E 009°07'612.9
2017-May-18 19:59N 41°17' E 008°58'714.7
2017-May-18 19:30N 41°21' E 008°50'815.5
2017-May-18 19:00N 41°27' E 008°44'815.9
2017-May-18 18:30N 41°34' E 008°38'816.1
2017-May-18 17:59N 41°42' E 008°36'815.9
2017-May-18 17:30N 41°49' E 008°40'713.8
2017-May-18 16:59N 41°55' E 008°45'0 0.1
2017-May-18 10:00N 41°55' E 008°44'0 0.0
2017-May-18 09:09N 41°55' E 008°44'0 0.4
2017-May-18 09:00N 41°55' E 008°45'2 3.9
2017-May-18 08:30N 41°53' E 008°44'1020.7
2017-May-18 08:00N 41°48' E 008°32'1322.6
2017-May-18 07:24N 41°46' E 008°14'1922.8
2017-May-18 06:34N 41°47' E 007°48'223.0
2017-May-18 06:30N 41°47' E 007°46'1223.2
2017-May-18 06:00N 41°47' E 007°31'1122.1
2017-May-18 05:29N 41°47' E 007°15'1122.2
2017-May-18 04:58N 41°47' E 006°60'1022.0
2017-May-18 04:30N 41°47' E 006°46'1222.1
2017-May-18 03:58N 41°45' E 006°30'1021.8
2017-May-18 03:31N 41°44' E 006°17'1122.0
2017-May-18 03:00N 41°42' E 006°03'1222.0
2017-May-18 02:29N 41°40' E 005°48'1121.9
2017-May-18 01:59N 41°38' E 005°33'1121.9
2017-May-18 01:31N 41°37' E 005°19'1122.0
2017-May-18 01:01N 41°35' E 005°05'1122.0
2017-May-18 00:31N 41°34' E 004°50'1122.0
2017-May-18 00:01N 41°32' E 004°36'1122.0
2017-May-17 23:30N 41°30' E 004°21'1122.1
2017-May-17 23:01N 41°29' E 004°07'1121.9
2017-May-17 22:31N 41°27' E 003°52'1121.8
2017-May-17 22:00N 41°25' E 003°38'1121.9
2017-May-17 21:30N 41°24' E 003°23'1121.7
2017-May-17 21:01N 41°22' E 003°09'8468.6
2017-May-17 21:00N 41°18' E 003°00'5 9.2 120 / 81017.1 5.4 22.013.419.0
2017-May-17 20:30N 41°20' E 002°55'1121.3
2017-May-17 20:00N 41°18' E 002°41'1019.5
2017-May-17 19:30N 41°17' E 002°28'918.3
2017-May-17 19:00N 41°15' E 002°16'712.0
2017-May-17 18:24N 41°21' E 002°10'1 1.1
2017-May-17 17:56N 41°21' E 002°11'0 0.0
2017-May-17 17:10N 41°21' E 002°11'0 0.0
2017-May-17 16:58N 41°21' E 002°11'0 0.0
2017-May-17 16:28N 41°21' E 002°11'0 0.0
2017-May-17 15:58N 41°21' E 002°11'0 0.0
2017-May-17 15:22N 41°21' E 002°11'0 0.0
2017-May-17 15:00N 41°21' E 002°11'0 0.0
2017-May-17 14:27N 41°21' E 002°11'0 0.0
2017-May-17 13:30N 41°21' E 002°11'0 0.0
2017-May-17 12:57N 41°21' E 002°11'0 0.0
2017-May-17 11:26N 41°21' E 002°11'0 0.0
2017-May-17 10:19N 41°21' E 002°11'0 0.0
2017-May-17 09:22N 41°21' E 002°11'0 0.0
2017-May-17 08:58N 41°21' E 002°11'0 0.0
2017-May-17 08:25N 41°21' E 002°11'0 0.0
2017-May-17 08:00N 41°21' E 002°11'0 0.0
2017-May-17 07:27N 41°21' E 002°11'0 0.0
2017-May-17 07:00N 41°21' E 002°11'1 2.6
2017-May-17 06:30N 41°20' E 002°10'5 8.8
2017-May-17 05:56N 41°15' E 002°11'511.4
2017-May-17 05:31N 41°10' E 002°09'714.2
2017-May-17 05:00N 41°04' E 002°05'917.8
2017-May-17 04:30N 40°56' E 001°59'918.0
2017-May-17 04:00N 40°48' E 001°54'1019.2
2017-May-17 03:30N 40°39' E 001°48'919.1
2017-May-17 03:00N 40°31' E 001°42'1018.9
2017-May-17 02:30N 40°22' E 001°37'1019.2
2017-May-17 02:00N 40°14' E 001°30'  
Track history (hours):
 
Tides and Currents Weather Stations Pressure Air Temp Water Temp Dewpoint Dewpoint Depression Visibility Wind Speed Wind Dir Waves Ship Positions

Crown Princess

Last reported at 2017-May-27 01:50 UTC. Time now 2017-May-27 02:17 UTC.
Position N 50°13' W 001°05'.

Type: Ship. MMSI: 310500000.

Date/timePositionNaut miles runAvg speedWind from/ knotsBaromVisibWave heightAir tempDewpointWater temp
2017-May-27 01:50N 50°13' W 001°05'515.8
2017-May-27 01:29N 50°11' W 001°13'713.8
2017-May-27 00:59N 50°09' W 001°23'4115.2
2017-May-26 22:19N 49°57' W 002°23'516.2
2017-May-26 22:00N 49°55' W 002°31'816.1
2017-May-26 21:30N 49°53' W 002°43'816.2
2017-May-26 21:01N 49°51' W 002°55'816.4
2017-May-26 20:30N 49°46' W 003°06'917.9
2017-May-26 20:00N 49°42' W 003°17'1020.3
2017-May-26 19:30N 49°37' W 003°31'1020.6
2017-May-26 19:00N 49°32' W 003°45'1120.9
2017-May-26 18:30N 49°27' W 003°59'1121.1
2017-May-26 18:00N 49°21' W 004°12'3321.5
2017-May-26 16:28N 49°02' W 004°54'1021.8
2017-May-26 16:00N 48°57' W 005°08'1121.0
2017-May-26 15:30N 48°53' W 005°22'1221.6
2017-May-26 14:58N 48°47' W 005°37'2020.2
2017-May-26 13:59N 48°29' W 005°50'21919.9
2017-May-26 03:00N 45°12' W 008°12'11623.3 310 / 51011.4 5.4 14.513.618.0
2017-May-25 22:00N 43°30' W 009°30'9018.1 310 / 161013.9 5.4 15.514.318.0
2017-May-25 17:00N 42°00' W 009°42'2424.0 290 / 141011.9 5.4 17.016.318.0
2017-May-25 16:00N 41°36' W 009°42'1818.0 340 / 101012.0 5.4 17.016.318.0
2017-May-25 15:00N 41°18' W 009°42'824.2 330 / 121013.0 5.4 17.016.318.0
2017-May-25 14:41N 41°12' W 009°48'6319.6
2017-May-25 11:28N 40°09' W 009°48'919.8
2017-May-25 11:00N 40°00' W 009°49'12900.6
2017-May-25 11:00N 40°12' W 009°48'2244.8 310 / 111014.4 2.2 17.013.518.0
2017-May-25 10:30N 39°50' W 009°50'1019.5
2017-May-25 10:01N 39°41' W 009°50'1019.7
2017-May-25 09:29N 39°30' W 009°50'919.3
2017-May-25 09:01N 39°21' W 009°49'1019.1
2017-May-25 08:30N 39°11' W 009°49'1019.6
2017-May-25 08:00N 39°02' W 009°50'1019.5
2017-May-25 07:30N 38°52' W 009°50'1019.5
2017-May-25 07:01N 38°42' W 009°50'1019.6
2017-May-25 06:31N 38°33' W 009°47'1019.8
2017-May-25 06:00N 38°23' W 009°44'1020.0
2017-May-25 05:31N 38°13' W 009°41'1020.1
2017-May-25 05:00N 38°03' W 009°39'4262.7
2017-May-25 05:00N 38°00' W 009°36'613.0 310 / 41013.8 5.4 20.514.618.0
2017-May-25 04:31N 37°54' W 009°36'1020.0
2017-May-25 04:01N 37°44' W 009°33'3182.0
2017-May-25 04:00N 37°42' W 009°30'816.2 010 / 41013.9 5.4 20.514.618.0
2017-May-25 03:31N 37°34' W 009°31'1020.0
2017-May-25 03:01N 37°24' W 009°29'4215.7
2017-May-25 03:00N 37°24' W 009°24'1020.0 360 / 41014.0 5.4 20.514.618.0
2017-May-25 02:30N 37°14' W 009°26'1019.7
2017-May-25 01:59N 37°05' W 009°22'919.6
2017-May-25 01:31N 36°56' W 009°19'1019.8
2017-May-25 01:01N 36°48' W 009°12'1019.4
2017-May-25 00:30N 36°43' W 009°01'1020.1
2017-May-25 00:00N 36°40' W 008°49'1119.9
2017-May-24 23:26N 36°36' W 008°36'920.1
2017-May-24 23:00N 36°34' W 008°26'1219.7
2017-May-24 22:24N 36°30' W 008°12'819.4
2017-May-24 22:00N 36°28' W 008°02'81139.1
2017-May-24 22:00N 36°24' W 007°54'11317.8 360 / 151013.8 5.4 19.716.920.0
2017-May-24 15:40N 35°58' W 005°38'315.8
2017-May-24 15:30N 35°59' W 005°35'816.8
2017-May-24 15:01N 36°01' W 005°25'815.2
2017-May-24 14:30N 36°09' W 005°22'0 0.0
2017-May-24 06:05N 36°09' W 005°22'1 7.0
2017-May-24 05:52N 36°07' W 005°23'3 9.1
2017-May-24 05:31N 36°06' W 005°19'1019.4
2017-May-24 05:00N 36°06' W 005°07'1019.2
2017-May-24 04:30N 36°08' W 004°55'20617.0
2017-May-23 16:21N 37°20' W 000°54'617.1
2017-May-23 16:00N 37°24' W 000°49'917.6
2017-May-23 15:30N 37°30' W 000°40'917.7
2017-May-23 14:59N 37°36' W 000°32'1717.2
2017-May-23 14:00N 37°50' W 000°19'1017.0
2017-May-23 13:23N 37°59' W 000°13'717.6
2017-May-23 12:59N 38°05' W 000°07'1117.5
2017-May-23 12:23N 38°14' W 000°01'717.8
2017-May-23 12:00N 38°20' E 000°03'4818.1
2017-May-23 09:19N 38°60' E 000°38'618.4
2017-May-23 08:59N 39°05' E 000°43'918.3
2017-May-23 08:29N 39°12' E 000°51'1018.4
2017-May-23 07:59N 39°19' E 000°58'918.4
2017-May-23 07:30N 39°26' E 001°06'916.8
2017-May-23 06:57N 39°33' E 001°13'918.3
2017-May-23 06:26N 39°40' E 001°21'818.7
2017-May-23 06:00N 39°47' E 001°27'918.8
2017-May-23 05:30N 39°54' E 001°35'918.8
2017-May-23 05:00N 40°01' E 001°43'1152.3
2017-May-23 05:00N 40°00' E 001°42'1122.3 050 / 151018.410.8 18.515.119.0
2017-May-23 04:30N 40°09' E 001°51'919.0
2017-May-23 04:00N 40°16' E 001°58'5316.6
2017-May-23 04:00N 40°12' E 001°54'1530.2 050 / 111018.010.8 18.515.119.0
2017-May-23 03:31N 40°23' E 002°06'918.7
2017-May-23 03:00N 40°31' E 002°14'7506.2
2017-May-23 03:00N 40°24' E 002°12'1632.4 040 / 101018.110.8 18.515.119.0
2017-May-23 02:31N 40°38' E 002°22'918.8
2017-May-23 02:00N 40°45' E 002°29'918.6
2017-May-23 01:30N 40°53' E 002°37'918.6
2017-May-23 01:01N 40°60' E 002°45'918.4
2017-May-23 00:30N 41°07' E 002°52'918.5
2017-May-23 00:00N 41°14' E 003°00'918.4
2017-May-22 23:31N 41°21' E 003°08'918.7
2017-May-22 23:01N 41°28' E 003°16'918.9
2017-May-22 22:30N 41°36' E 003°24'918.6
2017-May-22 22:01N 41°43' E 003°31'1018.9
2017-May-22 21:30N 41°50' E 003°39'1020.0
2017-May-22 21:01N 41°58' E 003°48'1019.9
2017-May-22 20:30N 42°06' E 003°56'1020.0
2017-May-22 20:01N 42°14' E 004°05'1020.0
2017-May-22 19:30N 42°21' E 004°13'1020.1
2017-May-22 19:00N 42°29' E 004°22'1020.2
2017-May-22 18:30N 42°37' E 004°30'1020.2
2017-May-22 18:01N 42°45' E 004°39'1020.0
2017-May-22 17:30N 42°53' E 004°48'1019.4
2017-May-22 17:00N 43°00' E 004°56'917.7
2017-May-22 16:30N 43°07' E 005°04'816.4
2017-May-22 16:00N 43°15' E 005°08'816.1
2017-May-22 15:30N 43°20' E 005°17'3 4.2
2017-May-22 14:52N 43°21' E 005°20'0 0.0
2017-May-22 13:57N 43°21' E 005°20'0 0.0
2017-May-22 13:24N 43°21' E 005°20'0 0.0
2017-May-22 13:00N 43°21' E 005°20'0 0.0
2017-May-22 12:30N 43°21' E 005°20'0 0.0
2017-May-22 11:56N 43°21' E 005°20'0 0.0
2017-May-22 11:23N 43°21' E 005°20'0 0.0
2017-May-22 10:50N 43°21' E 005°20'0 0.0
2017-May-22 10:29N 43°21' E 005°20'0 0.0
2017-May-22 09:58N 43°21' E 005°20'0 0.0
2017-May-22 09:25N 43°21' E 005°20'0 0.0
2017-May-22 08:55N 43°21' E 005°20'0 0.0
2017-May-22 08:19N 43°21' E 005°20'0 0.0
2017-May-22 07:58N 43°21' E 005°20'0 0.0
2017-May-22 07:30N 43°21' E 005°20'0 0.0
2017-May-22 06:54N 43°21' E 005°20'0 0.0
2017-May-22 06:21N 43°21' E 005°20'0 0.0
2017-May-22 06:00N 43°21' E 005°20'0 0.0
2017-May-22 05:30N 43°21' E 005°20'1 2.5
2017-May-22 05:00N 43°21' E 005°19'611.0
2017-May-22 04:30N 43°17' E 005°13'714.1
2017-May-22 04:00N 43°10' E 005°11'815.3
2017-May-22 03:30N 43°05' E 005°18'916.3
2017-May-22 02:57N 43°02' E 005°30'716.5
2017-May-22 02:30N 42°59' E 005°39'816.8
2017-May-22 02:00N 42°57' E 005°50'816.8
2017-May-22 01:31N 42°54' E 006°01'816.8
2017-May-22 01:01N 42°51' E 006°11'815.5
2017-May-22 00:29N 42°52' E 006°23'816.9
2017-May-22 00:00N 42°56' E 006°32'917.1
2017-May-21 23:29N 43°00' E 006°43'1318.3
2017-May-21 22:47N 43°07' E 006°57'518.3
2017-May-21 22:30N 43°10' E 007°04'917.9
2017-May-21 21:58N 43°15' E 007°15'818.0
2017-May-21 21:31N 43°19' E 007°25'917.7
2017-May-21 21:00N 43°23' E 007°36'917.7
2017-May-21 20:30N 43°27' E 007°46'1019.2
2017-May-21 20:00N 43°32' E 007°57'1019.3
2017-May-21 19:31N 43°37' E 008°09'918.7
2017-May-21 19:01N 43°43' E 008°19'918.6
2017-May-21 18:30N 43°48' E 008°29'917.7
2017-May-21 18:00N 43°54' E 008°39'1019.1
2017-May-21 17:30N 44°00' E 008°49'917.4
2017-May-21 17:01N 44°06' E 008°58'917.3
2017-May-21 16:30N 44°11' E 009°07'917.2
2017-May-21 16:01N 44°17' E 009°17'4 6.4
2017-May-21 15:27N 44°20' E 009°14'0 0.0
2017-May-21 14:59N 44°20' E 009°14'0 0.0
2017-May-21 14:29N 44°20' E 009°14'0 0.0
2017-May-21 13:26N 44°20' E 009°14'0 0.0
2017-May-21 12:55N 44°20' E 009°14'0 0.0
2017-May-21 12:28N 44°20' E 009°14'0 0.0
2017-May-21 10:39N 44°20' E 009°14'0 0.0
2017-May-21 10:30N 44°20' E 009°14'0 0.0
2017-May-21 09:48N 44°20' E 009°14'0 0.0
2017-May-21 09:27N 44°20' E 009°14'0 0.1
2017-May-21 09:00N 44°20' E 009°14'0 0.0
2017-May-21 08:30N 44°20' E 009°14'0 0.0
2017-May-21 06:16N 44°20' E 009°14'0 0.0
2017-May-21 06:00N 44°20' E 009°14'0 0.0
2017-May-21 04:24N 44°20' E 009°14'1 3.1
2017-May-21 04:00N 44°19' E 009°15'612.3
2017-May-21 03:31N 44°13' E 009°18'611.2
2017-May-21 03:00N 44°08' E 009°19'510.1
2017-May-21 02:30N 44°03' E 009°19'510.2
2017-May-21 02:00N 43°57' E 009°19'511.0
2017-May-21 01:30N 43°52' E 009°20'611.0
2017-May-21 01:00N 43°47' E 009°20'5 9.9
2017-May-21 00:30N 43°42' E 009°23'510.7
2017-May-21 00:00N 43°40' E 009°30'510.5
2017-May-20 23:30N 43°38' E 009°36'510.6
2017-May-20 23:00N 43°36' E 009°43'510.7
2017-May-20 22:30N 43°34' E 009°50'510.6
2017-May-20 22:00N 43°32' E 009°57'510.1
2017-May-20 21:30N 43°30' E 010°03'510.3
2017-May-20 21:00N 43°31' E 010°11'5 9.1
2017-May-20 20:30N 43°32' E 010°17'1 2.8
2017-May-20 20:00N 43°33' E 010°18'0 0.0
2017-May-20 19:30N 43°33' E 010°18'0 0.0
2017-May-20 19:00N 43°33' E 010°18'0 0.0
2017-May-20 18:30N 43°33' E 010°18'0 0.0
2017-May-20 17:59N 43°33' E 010°18'0 0.0
2017-May-20 17:26N 43°33' E 010°18'0 0.0
2017-May-20 16:56N 43°33' E 010°18'0 0.0
2017-May-20 16:29N 43°33' E 010°18'0 0.0
2017-May-20 15:59N 43°33' E 010°18'0 0.0
2017-May-20 15:28N 43°33' E 010°18'0 0.0
2017-May-20 14:58N 43°33' E 010°18'0 0.0
2017-May-20 14:28N 43°33' E 010°18'0 0.0
2017-May-20 13:30N 43°33' E 010°18'0 0.0
2017-May-20 13:00N 43°33' E 010°18'0 0.0
2017-May-20 12:30N 43°33' E 010°18'0 0.0
2017-May-20 11:57N 43°33' E 010°18'0 0.0
2017-May-20 11:30N 43°33' E 010°18'0 0.1
2017-May-20 11:00N 43°33' E 010°18'0 0.0
2017-May-20 10:29N 43°33' E 010°18'0 0.0
2017-May-20 09:59N 43°33' E 010°18'0 0.0
2017-May-20 09:30N 43°33' E 010°18'0 0.1
2017-May-20 08:58N 43°33' E 010°18'0 0.0
2017-May-20 08:28N 43°33' E 010°18'0 0.0
2017-May-20 07:58N 43°33' E 010°18'0 0.0
2017-May-20 07:28N 43°33' E 010°18'0 0.0
2017-May-20 06:57N 43°33' E 010°18'0 0.0
2017-May-20 06:30N 43°33' E 010°18'0 0.0
2017-May-20 06:00N 43°33' E 010°18'0 0.0
2017-May-20 05:24N 43°33' E 010°18'0 0.0
2017-May-20 05:00N 43°33' E 010°18'1 2.9
2017-May-20 04:30N 43°32' E 010°16'4 7.4
2017-May-20 04:01N 43°29' E 010°13'611.3
2017-May-20 03:30N 43°24' E 010°11'714.9
2017-May-20 03:00N 43°16' E 010°09'714.5
2017-May-20 02:30N 43°09' E 010°07'714.6
2017-May-20 02:00N 43°02' E 010°06'714.7
2017-May-20 01:30N 42°55' E 010°04'714.8
2017-May-20 01:00N 42°47' E 010°03'713.6
2017-May-20 00:30N 42°41' E 010°06'914.6
2017-May-19 23:53N 42°36' E 010°16'514.7
2017-May-19 23:30N 42°32' E 010°22'815.1
2017-May-19 23:00N 42°27' E 010°30'3115.2
2017-May-19 20:59N 42°08' E 011°03'915.2
2017-May-19 20:23N 42°07' E 011°15'815.3
2017-May-19 19:54N 42°06' E 011°25'615.3
2017-May-19 19:29N 42°05' E 011°33'10 0.9
2017-May-19 08:44N 42°06' E 011°46'23 3.9
2017-May-19 02:55N 41°57' E 011°19'817.2
2017-May-19 02:26N 41°54' E 011°08'716.5
2017-May-19 02:00N 41°51' E 010°60'1117.0
2017-May-19 01:22N 41°47' E 010°46'817.3
2017-May-19 00:54N 41°44' E 010°36'1217.2
2017-May-19 00:11N 41°39' E 010°21'317.2
2017-May-19 00:00N 41°38' E 010°17'917.3
2017-May-18 23:30N 41°35' E 010°07'1817.2
2017-May-18 22:29N 41°28' E 009°45'1217.3
2017-May-18 21:47N 41°24' E 009°30'616.7
2017-May-18 21:28N 41°22' E 009°23'715.7
2017-May-18 21:00N 41°18' E 009°15'612.6
2017-May-18 20:29N 41°17' E 009°07'612.9
2017-May-18 19:59N 41°17' E 008°58'714.7
2017-May-18 19:30N 41°21' E 008°50'815.5
2017-May-18 19:00N 41°27' E 008°44'815.9
2017-May-18 18:30N 41°34' E 008°38'816.1
2017-May-18 17:59N 41°42' E 008°36'815.9
2017-May-18 17:30N 41°49' E 008°40'713.8
2017-May-18 16:59N 41°55' E 008°45'0 0.1
2017-May-18 10:00N 41°55' E 008°44'0 0.0
2017-May-18 09:09N 41°55' E 008°44'0 0.4
2017-May-18 09:00N 41°55' E 008°45'2 3.9
2017-May-18 08:30N 41°53' E 008°44'1020.7
2017-May-18 08:00N 41°48' E 008°32'1322.6
2017-May-18 07:24N 41°46' E 008°14'1922.8
2017-May-18 06:34N 41°47' E 007°48'223.0
2017-May-18 06:30N 41°47' E 007°46'1223.2
2017-May-18 06:00N 41°47' E 007°31'1122.1
2017-May-18 05:29N 41°47' E 007°15'1122.2
2017-May-18 04:58N 41°47' E 006°60'1022.0
2017-May-18 04:30N 41°47' E 006°46'1222.1
2017-May-18 03:58N 41°45' E 006°30'1021.8
2017-May-18 03:31N 41°44' E 006°17'1122.0
2017-May-18 03:00N 41°42' E 006°03'1222.0
2017-May-18 02:29N 41°40' E 005°48'1121.9
2017-May-18 01:59N 41°38' E 005°33'1121.9
2017-May-18 01:31N 41°37' E 005°19'1122.0
2017-May-18 01:01N 41°35' E 005°05'1122.0
2017-May-18 00:31N 41°34' E 004°50'1122.0
2017-May-18 00:01N 41°32' E 004°36'1122.0
2017-May-17 23:30N 41°30' E 004°21'1122.1
2017-May-17 23:01N 41°29' E 004°07'1121.9
2017-May-17 22:31N 41°27' E 003°52'1121.8
2017-May-17 22:00N 41°25' E 003°38'1121.9
2017-May-17 21:30N 41°24' E 003°23'1121.7
2017-May-17 21:01N 41°22' E 003°09'8468.6
2017-May-17 21:00N 41°18' E 003°00'5 9.2 120 / 81017.1 5.4 22.013.419.0
2017-May-17 20:30N 41°20' E 002°55'1121.3
2017-May-17 20:00N 41°18' E 002°41'1019.5
2017-May-17 19:30N 41°17' E 002°28'918.3
2017-May-17 19:00N 41°15' E 002°16'712.0
2017-May-17 18:24N 41°21' E 002°10'1 1.1
2017-May-17 17:56N 41°21' E 002°11'0 0.0
2017-May-17 17:10N 41°21' E 002°11'0 0.0
2017-May-17 16:58N 41°21' E 002°11'0 0.0
2017-May-17 16:28N 41°21' E 002°11'0 0.0
2017-May-17 15:58N 41°21' E 002°11'0 0.0
2017-May-17 15:22N 41°21' E 002°11'0 0.0
2017-May-17 15:00N 41°21' E 002°11'0 0.0
2017-May-17 14:27N 41°21' E 002°11'0 0.0
2017-May-17 13:30N 41°21' E 002°11'0 0.0
2017-May-17 12:57N 41°21' E 002°11'0 0.0
2017-May-17 11:26N 41°21' E 002°11'0 0.0
2017-May-17 10:19N 41°21' E 002°11'0 0.0
2017-May-17 09:22N 41°21' E 002°11'0 0.0
2017-May-17 08:58N 41°21' E 002°11'0 0.0
2017-May-17 08:25N 41°21' E 002°11'0 0.0
2017-May-17 08:00N 41°21' E 002°11'0 0.0
2017-May-17 07:27N 41°21' E 002°11'0 0.0
2017-May-17 07:00N 41°21' E 002°11'1 2.6
2017-May-17 06:30N 41°20' E 002°10'5 8.8
2017-May-17 05:56N 41°15' E 002°11'511.4
2017-May-17 05:31N 41°10' E 002°09'714.2
2017-May-17 05:00N 41°04' E 002°05'917.8
2017-May-17 04:30N 40°56' E 001°59'918.0
2017-May-17 04:00N 40°48' E 001°54'1019.2
2017-May-17 03:30N 40°39' E 001°48'919.1
2017-May-17 03:00N 40°31' E 001°42'1018.9
2017-May-17 02:30N 40°22' E 001°37'1019.2
2017-May-17 02:00N 40°14' E 001°30'  

Dump ship's entire track history